Time;durP1;ratioP1;P1;durP2;ratioP2;P2;SDS_P1;SDS_P2;PMS_P1;PMS_P2;Temp;Humidity;BMP_temperature;BMP_pressure;BME280_temperature;BME280_humidity;BME280_pressure;Samples;Min_cycle;Max_cycle;Signal;HPM_P1;HPM_P2
2021/12/22 00:01:42;;;;;;;23.50;12.18;;;;;;;-9.08;71.02;100825.56;1797288;79;21109;-74
2021/12/22 00:04:08;;;;;;;25.00;13.72;;;;;;;-9.10;71.07;100830.03;1795627;79;21135;-73
2021/12/22 00:06:36;;;;;;;29.63;14.45;;;;;;;-9.10;71.07;100827.92;1797665;78;21549;-73
2021/12/22 00:09:05;;;;;;;24.27;12.80;;;;;;;-9.08;71.06;100838.50;1796917;78;21089;-74
2021/12/22 00:11:34;;;;;;;24.70;13.18;;;;;;;-9.08;71.01;100837.20;1796413;78;21045;-73
2021/12/22 00:14:00;;;;;;;22.73;11.25;;;;;;;-9.12;70.94;100835.78;1798339;78;21120;-73
2021/12/22 00:16:28;;;;;;;22.42;13.08;;;;;;;-9.11;70.96;100835.31;1793941;78;21587;-73
2021/12/22 00:18:54;;;;;;;23.40;13.68;;;;;;;-9.14;70.97;100838.98;1798790;78;21034;-74
2021/12/22 00:21:21;;;;;;;25.90;14.65;;;;;;;-9.13;70.99;100846.27;1796449;78;21018;-73
2021/12/22 00:23:48;;;;;;;29.25;15.05;;;;;;;-9.14;70.96;100844.16;1798322;78;22159;-73
2021/12/22 00:26:15;;;;;;;22.32;11.63;;;;;;;-9.21;70.98;100845.12;1798485;78;21501;-73
2021/12/22 00:28:43;;;;;;;18.48;10.23;;;;;;;-9.26;71.05;100845.95;1795782;78;21587;-73
2021/12/22 00:31:13;;;;;;;19.92;10.03;;;;;;;-9.28;71.19;100847.00;1797830;78;21074;-74
2021/12/22 00:33:46;;;;;;;17.80;9.63;;;;;;;-9.32;71.27;100846.42;1794037;79;21112;-73
2021/12/22 00:36:09;;;;;;;16.48;9.15;;;;;;;-9.33;71.38;100848.67;1796596;78;21010;-73
2021/12/22 00:38:37;;;;;;;15.58;7.37;;;;;;;-9.32;71.45;100855.95;1797601;79;21104;-73
2021/12/22 00:41:05;;;;;;;15.43;7.28;;;;;;;-9.31;71.47;100852.41;1797745;79;21532;-73
2021/12/22 00:43:31;;;;;;;17.35;8.50;;;;;;;-9.34;71.43;100849.63;1795795;78;21042;-73
2021/12/22 00:45:58;;;;;;;16.45;9.15;;;;;;;-9.39;71.41;100856.91;1790468;78;21556;-73
2021/12/22 00:48:25;;;;;;;16.93;8.38;;;;;;;-9.44;71.43;100853.87;1794774;78;21018;-73
2021/12/22 00:50:51;;;;;;;24.00;10.20;;;;;;;-9.45;71.43;100860.79;1797459;78;21145;-72
2021/12/22 00:53:18;;;;;;;21.50;10.38;;;;;;;-9.47;71.48;100861.88;1797497;78;21042;-72
2021/12/22 00:55:44;;;;;;;18.42;9.68;;;;;;;-9.48;71.51;100858.91;1791061;79;21038;-74
2021/12/22 00:58:11;;;;;;;19.92;10.18;;;;;;;-9.48;71.65;100862.32;1798174;78;21162;-71
2021/12/22 01:00:38;;;;;;;19.30;9.68;;;;;;;-9.47;71.68;100863.17;1795402;78;21101;-71
2021/12/22 01:03:04;;;;;;;23.52;10.50;;;;;;;-9.50;71.90;100867.28;1794443;78;21414;-72
2021/12/22 01:05:31;;;;;;;19.98;10.63;;;;;;;-9.50;71.92;100867.28;1794891;78;21120;-73
2021/12/22 01:07:57;;;;;;;19.85;9.60;;;;;;;-9.49;71.93;100877.49;1794318;79;21046;-73
2021/12/22 01:10:28;;;;;;;18.10;9.15;;;;;;;-9.48;71.98;100869.26;1789698;78;21627;-73
2021/12/22 01:12:58;;;;;;;17.60;8.70;;;;;;;-9.48;72.05;100871.84;1794790;78;22169;-73
2021/12/22 01:15:25;;;;;;;18.92;9.38;;;;;;;-9.48;72.19;100871.84;1791606;78;21756;-73
2021/12/22 01:18:02;;;;;;;21.50;10.68;;;;;;;-9.46;72.29;100875.14;1795245;78;21027;-73
2021/12/22 01:20:28;;;;;;;21.82;10.45;;;;;;;-9.46;72.35;100879.84;1793698;78;21557;-72
2021/12/22 01:22:52;;;;;;;18.77;8.98;;;;;;;-9.42;72.37;100880.90;1797466;78;21003;-73
2021/12/22 01:25:23;;;;;;;18.10;10.28;;;;;;;-9.43;72.42;100876.20;1799108;78;21616;-72
2021/12/22 01:27:51;;;;;;;;;;;;;;;-9.43;72.45;100879.27;1801277;78;21911;-72
2021/12/22 01:30:22;;;;;;;19.80;9.85;;;;;;;-9.45;72.51;100876.30;1822089;77;20188;-72
2021/12/22 01:32:51;;;;;;;21.80;9.23;;;;;;;-9.45;72.56;100882.77;1822150;78;21037;-74
2021/12/22 01:35:21;;;;;;;19.75;8.65;;;;;;;-9.43;72.58;100889.61;1821459;78;21076;-72
2021/12/22 01:37:47;;;;;;;20.48;9.85;;;;;;;-9.42;72.63;100892.06;1821286;78;21025;-73
2021/12/22 01:40:14;;;;;;;19.62;8.18;;;;;;;-9.45;72.76;100899.58;1795124;78;21111;-72
2021/12/22 01:42:40;;;;;;;17.25;9.00;;;;;;;-9.43;72.84;100904.65;1821653;78;21045;-73
2021/12/22 01:45:52;;;;;;;18.35;8.38;;;;;;;-9.40;72.96;100900.53;1818969;78;21092;-72
2021/12/22 01:50:50;;;;;;;21.55;9.33;;;;;;;-9.35;72.95;100907.92;1823652;78;20973;-72
2021/12/22 01:53:29;;;;;;;18.30;10.08;;;;;;;-9.32;72.91;100905.92;1823145;78;21098;-72
2021/12/22 01:56:20;;;;;;;17.20;8.45;;;;;;;-9.30;72.82;100907.92;1819324;78;21442;-72
2021/12/22 01:58:45;;;;;;;20.97;9.85;;;;;;;-9.28;72.73;100911.23;1822080;78;21413;-73
2021/12/22 02:01:11;;;;;;;18.52;8.13;;;;;;;-9.35;72.69;100913.91;1823857;78;21020;-73
2021/12/22 02:03:39;;;;;;;20.62;9.75;;;;;;;-9.42;72.73;100914.05;1823230;78;20962;-73
2021/12/22 02:06:06;;;;;;;19.20;9.45;;;;;;;-9.43;72.74;100914.99;1824033;78;21097;-72
2021/12/22 02:08:33;;;;;;;19.57;8.50;;;;;;;-9.40;72.69;100918.64;1823968;78;20947;-72
2021/12/22 02:11:00;;;;;;;19.32;9.40;;;;;;;-9.42;72.60;100917.92;1823280;78;21041;-73
2021/12/22 02:13:36;;;;;;;17.32;9.03;;;;;;;-9.47;72.56;100913.59;1823179;78;21060;-73
2021/12/22 02:15:55;;;;;;;17.23;8.20;;;;;;;-9.50;72.60;100922.41;1821703;78;21076;-73
2021/12/22 02:18:22;;;;;;;18.05;8.93;;;;;;;-9.51;72.62;100922.06;1823817;78;21110;-72
2021/12/22 02:20:50;;;;;;;18.82;8.75;;;;;;;-9.57;72.61;100912.19;1823884;78;21045;-72
2021/12/22 02:23:18;;;;;;;20.02;9.18;;;;;;;-9.59;72.65;100917.12;1823162;78;21025;-72
2021/12/22 02:25:52;;;;;;;19.17;8.58;;;;;;;-9.60;72.81;100912.89;1823912;78;21496;-73
2021/12/22 02:28:21;;;;;;;19.15;8.33;;;;;;;-9.63;72.89;100911.36;1823826;78;21021;-72
2021/12/22 02:30:46;;;;;;;16.70;8.45;;;;;;;-9.67;72.85;100908.66;1823614;78;20974;-74
2021/12/22 02:33:24;;;;;;;20.55;9.25;;;;;;;-9.73;72.88;100918.17;1823631;78;20954;-73
2021/12/22 02:35:55;;;;;;;21.97;9.40;;;;;;;-9.78;72.94;100913.81;1823868;78;21013;-73
2021/12/22 02:38:22;;;;;;;17.15;8.15;;;;;;;-9.80;72.95;100916.53;1823884;78;20975;-73
2021/12/22 02:40:51;;;;;;;18.10;9.43;;;;;;;-9.84;73.08;100911.22;1823969;78;20990;-73
2021/12/22 02:43:24;;;;;;;21.90;9.65;;;;;;;-9.84;73.11;100914.27;1823896;78;21047;-73
2021/12/22 02:45:47;;;;;;;20.88;8.48;;;;;;;-9.86;73.26;100916.98;1820504;78;21013;-73
2021/12/22 02:48:13;;;;;;;18.80;9.53;;;;;;;-9.89;73.36;100910.76;1823219;78;21013;-73
2021/12/22 02:50:40;;;;;;;19.82;9.13;;;;;;;-9.92;73.45;100926.02;1823720;78;21001;-73
2021/12/22 02:53:13;;;;;;;19.00;9.33;;;;;;;-9.92;73.61;100925.20;1823963;78;20989;-73
2021/12/22 02:55:46;;;;;;;20.85;8.65;;;;;;;-9.89;73.65;100933.20;1823553;78;21105;-72
2021/12/22 02:58:25;;;;;;;12.37;6.37;;;;;;;-9.88;73.64;100920.14;1823287;78;21081;-72
2021/12/22 03:04:11;;;;;;;18.37;8.93;;;;;;;-9.88;73.64;100925.79;1824031;78;21029;-72
2021/12/22 03:06:06;;;;;;;20.77;9.60;;;;;;;-9.90;73.62;100931.09;1797068;78;20943;-72
2021/12/22 03:08:33;;;;;;;17.52;8.65;;;;;;;-9.92;73.63;100926.49;1794266;78;21135;-73
2021/12/22 03:10:59;;;;;;;16.67;8.58;;;;;;;-9.89;73.69;100934.02;1823644;78;20934;-73
2021/12/22 03:13:25;;;;;;;17.30;8.10;;;;;;;-9.93;73.67;100928.73;1823951;78;21555;-72
2021/12/22 03:15:52;;;;;;;17.45;8.70;;;;;;;-9.89;73.68;100933.20;1823636;78;21571;-72
2021/12/22 03:18:20;;;;;;;17.32;8.40;;;;;;;-9.91;73.71;100930.71;1823552;78;21489;-72
2021/12/22 03:20:53;;;;;;;17.60;8.83;;;;;;;-9.94;73.82;100933.52;1823687;78;21483;-72
2021/12/22 03:23:15;;;;;;;15.70;7.40;;;;;;;-9.93;73.84;100932.13;1822689;78;21446;-72
2021/12/22 03:25:44;;;;;;;18.48;7.95;;;;;;;-9.87;73.93;100940.34;1768506;78;21516;-72
2021/12/22 03:28:10;;;;;;;16.25;8.05;;;;;;;-9.84;74.00;100939.64;1824474;78;20962;-73
2021/12/22 03:30:37;;;;;;;16.62;7.30;;;;;;;-9.81;73.95;100943.77;1823838;78;20982;-73
2021/12/22 03:33:03;;;;;;;15.72;8.00;;;;;;;-9.82;73.92;100948.12;1824352;78;21017;-73
2021/12/22 03:35:34;;;;;;;16.35;8.78;;;;;;;-9.81;73.82;100939.41;1823860;78;21516;-73
2021/12/22 03:37:59;;;;;;;17.87;8.55;;;;;;;-9.82;73.75;100942.95;1823847;78;21179;-73
2021/12/22 03:40:28;;;;;;;17.07;9.05;;;;;;;-9.82;73.64;100942.13;1823895;78;21497;-73
2021/12/22 03:42:55;;;;;;;17.85;8.98;;;;;;;-9.83;73.58;100943.89;1823765;78;21041;-73
2021/12/22 03:45:21;;;;;;;16.40;8.23;;;;;;;-9.85;73.53;100948.34;1823820;78;21571;-73
2021/12/22 03:47:48;;;;;;;21.50;8.30;;;;;;;-9.87;73.48;100955.41;1823183;78;21080;-73
2021/12/22 03:50:16;;;;;;;13.68;7.05;;;;;;;-9.91;73.48;100948.80;1823987;78;21065;-73
2021/12/22 03:52:44;;;;;;;17.37;8.45;;;;;;;-9.95;73.46;100941.75;1818210;78;21405;-73
2021/12/22 03:55:11;;;;;;;16.90;8.65;;;;;;;-9.97;73.49;100955.27;1823885;78;21073;-74
2021/12/22 03:57:39;;;;;;;17.73;8.18;;;;;;;-9.99;73.51;100958.42;1824186;78;21084;-74
2021/12/22 04:00:10;;;;;;;17.00;8.53;;;;;;;-10.02;73.54;100964.30;1823845;78;20950;-72
2021/12/22 04:02:36;;;;;;;16.42;8.00;;;;;;;-10.06;73.55;100967.58;1824344;78;21460;-72
2021/12/22 04:05:04;;;;;;;17.52;8.45;;;;;;;-10.08;73.59;100971.20;1823886;78;21448;-73
2021/12/22 04:07:31;;;;;;;16.25;7.67;;;;;;;-10.12;73.59;100968.50;1805980;78;21025;-73
2021/12/22 04:09:59;;;;;;;16.30;8.18;;;;;;;-10.15;73.69;100970.36;1791552;80;21120;-73
2021/12/22 04:12:26;;;;;;;14.30;8.15;;;;;;;-10.18;73.69;100970.58;1796812;78;21147;-73
2021/12/22 04:14:52;;;;;;;15.70;7.15;;;;;;;-10.20;73.71;100972.47;1823954;78;21513;-73
2021/12/22 04:17:19;;;;;;;15.78;8.30;;;;;;;-10.22;73.70;100976.92;1823998;78;21025;-73
2021/12/22 04:19:45;;;;;;;16.32;8.40;;;;;;;-10.23;73.73;100979.16;1823958;78;21064;-73
2021/12/22 04:22:12;;;;;;;15.53;8.33;;;;;;;-10.23;73.72;100982.18;1814038;78;21068;-73
2021/12/22 04:24:38;;;;;;;14.80;7.67;;;;;;;-10.20;73.76;100982.80;1791262;80;21202;-73
2021/12/22 04:27:05;;;;;;;14.43;8.08;;;;;;;-10.15;73.78;100987.62;1791784;80;21410;-73
2021/12/22 04:29:32;;;;;;;15.83;7.80;;;;;;;-10.10;73.80;100988.12;1785992;78;21484;-72
2021/12/22 04:31:58;;;;;;;15.65;8.13;;;;;;;-10.03;73.93;100998.36;1785880;80;20942;-73
2021/12/22 04:34:24;;;;;;;15.28;8.10;;;;;;;-9.93;73.94;100997.20;1785428;80;22153;-73
2021/12/22 04:36:51;;;;;;;13.60;6.83;;;;;;;-9.82;73.96;100999.81;1785518;80;21010;-73
2021/12/22 04:39:19;;;;;;;16.55;7.85;;;;;;;-9.72;73.95;101000.77;1823159;78;21038;-73
2021/12/22 04:41:46;;;;;;;14.50;7.78;;;;;;;-9.62;73.85;101002.19;1823853;78;21035;-73
2021/12/22 04:44:13;;;;;;;14.58;7.20;;;;;;;-9.50;73.76;100997.87;1824002;78;20986;-73
2021/12/22 04:46:39;;;;;;;14.00;6.10;;;;;;;-9.39;73.54;101005.63;1823265;78;21072;-72
2021/12/22 04:49:06;;;;;;;12.35;6.90;;;;;;;-9.30;73.38;101004.11;1823571;78;21615;-72
2021/12/22 04:51:35;;;;;;;10.05;5.33;;;;;;;-9.23;73.16;101002.22;1819835;78;21492;-72
2021/12/22 04:54:15;;;;;;;12.33;6.45;;;;;;;-9.16;72.98;101005.16;1824176;78;20981;-73
2021/12/22 04:56:33;;;;;;;10.90;5.40;;;;;;;-9.11;72.70;101006.08;1822233;78;20934;-74
2021/12/22 04:59:00;;;;;;;10.25;5.45;;;;;;;-9.06;72.42;101008.67;1823802;78;21898;-73
2021/12/22 05:01:26;;;;;;;11.63;5.85;;;;;;;-9.04;72.33;101005.52;1823832;78;21002;-73
2021/12/22 05:03:56;;;;;;;11.35;5.05;;;;;;;-9.01;72.00;101015.63;1823632;78;20982;-73
2021/12/22 05:06:21;;;;;;;9.25;4.87;;;;;;;-8.96;71.78;101016.55;1822795;78;21073;-73
2021/12/22 05:08:49;;;;;;;9.85;4.20;;;;;;;-8.93;71.44;101016.80;1823989;78;20878;-73
2021/12/22 05:11:15;;;;;;;9.13;4.30;;;;;;;-8.91;70.84;101022.69;1824083;78;21085;-73
2021/12/22 05:13:42;;;;;;;8.30;4.53;;;;;;;-8.90;70.65;101029.02;1823483;78;21077;-73
2021/12/22 05:16:16;;;;;;;8.58;4.10;;;;;;;-8.84;70.45;101033.73;1823946;78;21093;-73
2021/12/22 05:18:55;;;;;;;9.75;5.08;;;;;;;-8.81;70.03;101027.49;1818443;78;20990;-73
2021/12/22 05:21:21;;;;;;;10.32;5.40;;;;;;;-8.80;69.93;101029.95;1819928;78;21008;-73
2021/12/22 05:23:49;;;;;;;10.78;4.90;;;;;;;-8.84;69.56;101030.32;1820849;78;21800;-74
2021/12/22 05:26:16;;;;;;;12.68;6.60;;;;;;;-8.95;69.18;101040.19;1820716;78;21066;-72
2021/12/22 05:28:42;;;;;;;14.35;7.20;;;;;;;-9.08;69.12;101034.31;1821108;78;21111;-72
2021/12/22 05:31:10;;;;;;;13.48;7.12;;;;;;;-9.19;69.09;101042.91;1820325;78;21034;-73
2021/12/22 05:33:38;;;;;;;12.53;6.05;;;;;;;-9.29;69.10;101040.20;1820994;78;21093;-74
2021/12/22 05:36:05;;;;;;;11.18;5.97;;;;;;;-9.36;69.07;101047.25;1820342;78;21483;-73
2021/12/22 05:38:31;;;;;;;12.30;6.62;;;;;;;-9.38;69.13;101049.12;1820595;78;21050;-73
2021/12/22 05:40:58;;;;;;;10.75;6.05;;;;;;;-9.43;69.28;101049.48;1820399;78;21817;-74
2021/12/22 05:43:24;;;;;;;13.40;6.78;;;;;;;-9.44;69.37;101053.02;1821415;78;21524;-73
2021/12/22 05:45:51;;;;;;;12.28;6.62;;;;;;;-9.46;69.50;101051.00;1816239;78;20910;-72
2021/12/22 05:48:19;;;;;;;12.23;5.90;;;;;;;-9.45;69.68;101055.22;1820689;78;21089;-72
2021/12/22 05:50:50;;;;;;;14.00;6.53;;;;;;;-9.40;69.71;101060.89;1821638;78;20931;-72
2021/12/22 05:53:16;;;;;;;13.85;6.35;;;;;;;-9.35;69.69;101056.65;1820323;78;20951;-73
2021/12/22 05:55:44;;;;;;;11.60;5.67;;;;;;;-9.29;69.72;101065.24;1790318;79;21478;-74
2021/12/22 05:58:13;;;;;;;12.93;6.20;;;;;;;-9.25;69.54;101070.53;1794615;79;20990;-74
2021/12/22 06:00:40;;;;;;;12.78;5.87;;;;;;;-9.26;69.47;101064.54;1794314;79;21509;-74
2021/12/22 06:03:06;;;;;;;12.55;5.67;;;;;;;-9.25;69.38;101070.53;1794865;79;21415;-74
2021/12/22 06:05:33;;;;;;;14.15;6.85;;;;;;;-9.26;69.30;101074.89;1803926;78;21039;-74
2021/12/22 06:08:00;;;;;;;15.85;6.60;;;;;;;-9.25;69.19;101084.77;1804108;78;20994;-72
2021/12/22 06:10:27;;;;;;;12.23;6.25;;;;;;;-9.31;69.06;101080.05;1804116;78;21096;-74
2021/12/22 06:12:56;;;;;;;14.10;5.90;;;;;;;-9.30;69.06;101093.36;1804166;78;21553;-74
2021/12/22 06:15:23;;;;;;;12.73;5.95;;;;;;;-9.31;68.95;101092.53;1800009;79;20963;-73
2021/12/22 06:17:54;;;;;;;11.90;5.65;;;;;;;-9.30;68.95;101093.36;1804396;79;21470;-72
2021/12/22 06:20:18;;;;;;;11.60;5.92;;;;;;;-9.30;68.95;101098.53;1803249;78;20956;-72
2021/12/22 06:22:45;;;;;;;12.93;5.65;;;;;;;-9.31;68.90;101099.00;1799543;78;21018;-72
2021/12/22 06:25:11;;;;;;;11.93;5.85;;;;;;;-9.30;68.87;101103.23;1803328;78;21441;-73
2021/12/22 06:27:38;;;;;;;11.60;5.72;;;;;;;-9.29;68.86;101104.05;1809574;77;21619;-73
2021/12/22 06:30:07;;;;;;;10.90;5.50;;;;;;;-9.27;68.91;101111.23;1805102;78;20985;-74
2021/12/22 06:32:33;;;;;;;8.33;4.60;;;;;;;-9.24;68.76;101117.00;1809545;78;21051;-73
2021/12/22 06:35:00;;;;;;;9.80;5.22;;;;;;;-9.22;68.60;101112.52;1809325;78;21069;-73
2021/12/22 06:37:26;;;;;;;11.53;5.17;;;;;;;-9.14;68.50;101119.72;1800159;78;21096;-74
2021/12/22 06:39:53;;;;;;;12.15;5.62;;;;;;;-9.08;68.40;101123.59;1809328;78;21027;-73
2021/12/22 06:42:19;;;;;;;10.40;5.47;;;;;;;-8.99;68.40;101130.19;1801033;78;21062;-73
2021/12/22 06:44:46;;;;;;;10.82;5.50;;;;;;;-8.90;68.22;101126.09;1800851;78;20992;-74
2021/12/22 06:47:12;;;;;;;12.40;5.10;;;;;;;-8.85;67.78;101135.64;1799533;78;20983;-72
2021/12/22 06:49:39;;;;;;;12.35;4.75;;;;;;;-8.80;67.32;101127.03;1800377;77;21151;-73
2021/12/22 06:52:06;;;;;;;11.05;4.47;;;;;;;-8.76;67.13;101138.80;1804651;78;21009;-74
2021/12/22 06:54:33;;;;;;;8.88;4.42;;;;;;;-8.74;66.58;101135.63;1808931;78;21090;-75
2021/12/22 06:57:01;;;;;;;8.05;3.90;;;;;;;-8.69;66.27;101139.63;1800089;78;20988;-73
2021/12/22 06:59:27;;;;;;;11.28;4.00;;;;;;;-8.69;65.91;101134.45;1781302;78;21042;-73
2021/12/22 07:01:53;;;;;;;7.28;3.25;;;;;;;-8.67;65.62;101138.57;1804905;78;21109;-75
2021/12/22 07:04:20;;;;;;;9.63;3.62;;;;;;;-8.65;65.37;101135.84;1804953;78;20999;-73
2021/12/22 07:06:48;;;;;;;7.92;3.65;;;;;;;-8.64;64.92;101135.75;1801036;78;21081;-74
2021/12/22 07:09:15;;;;;;;8.50;3.77;;;;;;;-8.65;64.56;101139.29;1812395;78;21061;-74
2021/12/22 07:11:43;;;;;;;7.75;3.90;;;;;;;-8.64;64.38;101138.81;1809192;78;21017;-75
2021/12/22 07:14:10;;;;;;;8.33;4.03;;;;;;;-8.62;64.14;101145.98;1796106;79;21538;-73
2021/12/22 07:16:38;;;;;;;6.80;3.45;;;;;;;-8.58;64.01;101152.59;1809491;77;20999;-74
2021/12/22 07:19:04;;;;;;;8.73;4.05;;;;;;;-8.54;63.93;101148.34;1813802;78;21070;-74
2021/12/22 07:21:32;;;;;;;7.40;3.05;;;;;;;-8.50;63.83;101138.09;1809533;78;21513;-74
2021/12/22 07:23:58;;;;;;;9.25;3.90;;;;;;;-8.47;63.45;101156.45;1809612;78;21597;-72
2021/12/22 07:26:24;;;;;;;7.62;4.08;;;;;;;-8.43;63.26;101145.38;1804525;78;21478;-73
2021/12/22 07:28:51;;;;;;;8.35;3.95;;;;;;;-8.38;63.18;101147.98;1813302;77;21023;-74
2021/12/22 07:31:18;;;;;;;7.87;4.12;;;;;;;-8.32;63.21;101157.02;1804588;78;20983;-73
2021/12/22 07:33:56;;;;;;;8.30;3.67;;;;;;;-8.30;63.10;101158.52;1800543;78;21121;-74
2021/12/22 07:36:23;;;;;;;7.50;3.70;;;;;;;-8.26;63.04;101160.39;1804692;78;21575;-75
2021/12/22 07:39:00;;;;;;;7.45;3.55;;;;;;;-8.25;62.80;101167.25;1796366;78;21797;-73
2021/12/22 07:41:28;;;;;;;5.87;3.02;;;;;;;-8.27;62.47;101172.53;1809115;78;21577;-73
2021/12/22 07:43:57;;;;;;;6.62;2.75;;;;;;;-8.28;62.36;101159.72;1809351;78;21536;-74
2021/12/22 07:46:23;;;;;;;5.40;3.00;;;;;;;-8.32;62.02;101161.72;1800369;78;21489;-74
2021/12/22 07:48:50;;;;;;;7.40;3.17;;;;;;;-8.33;61.89;101169.59;1806250;78;21045;-73
2021/12/22 07:51:18;;;;;;;5.53;3.22;;;;;;;-8.30;61.78;101156.41;1811364;78;20908;-75
2021/12/22 07:53:45;;;;;;;7.12;3.95;;;;;;;-8.18;61.60;101170.19;1809353;78;21623;-74
2021/12/22 07:56:12;;;;;;;8.33;3.45;;;;;;;-8.09;61.67;101161.22;1813300;78;20955;-74
2021/12/22 07:58:39;;;;;;;7.58;3.17;;;;;;;-8.01;61.56;101172.27;1806004;78;21042;-74
2021/12/22 08:01:05;;;;;;;8.80;4.17;;;;;;;-7.95;61.29;101162.71;1805018;78;21073;-74
2021/12/22 08:03:32;;;;;;;6.83;3.60;;;;;;;-7.93;60.96;101176.38;1803390;78;21528;-74
2021/12/22 08:05:58;;;;;;;8.08;3.60;;;;;;;-7.88;60.68;101169.05;1800011;78;21309;-74
2021/12/22 08:08:25;;;;;;;7.10;3.45;;;;;;;-7.86;60.72;101174.95;1804572;78;21057;-73
2021/12/22 08:10:52;;;;;;;7.62;3.42;;;;;;;-7.80;60.42;101171.88;1817682;78;21079;-75
2021/12/22 08:13:19;;;;;;;6.58;3.50;;;;;;;-7.71;60.18;101175.95;1799764;78;21105;-74
2021/12/22 08:15:46;;;;;;;7.55;3.25;;;;;;;-7.65;60.17;101178.06;1800802;78;21457;-74
2021/12/22 08:18:13;;;;;;;10.35;4.08;;;;;;;-7.59;60.04;101172.38;1809424;78;21061;-75
2021/12/22 08:20:40;;;;;;;7.33;3.75;;;;;;;-7.54;59.80;101174.11;1809313;78;21050;-74
2021/12/22 08:23:06;;;;;;;6.53;3.65;;;;;;;-7.51;59.49;101176.94;1805061;78;20940;-75
2021/12/22 08:25:33;;;;;;;7.42;3.67;;;;;;;-7.50;59.17;101176.83;1800614;78;21160;-75
2021/12/22 08:28:00;;;;;;;5.70;3.25;;;;;;;-7.48;59.03;101178.81;1808324;78;21143;-73
2021/12/22 08:30:27;;;;;;;7.97;3.50;;;;;;;-7.45;58.97;101179.86;1809318;78;21085;-75
2021/12/22 08:32:55;;;;;;;8.18;3.35;;;;;;;-7.40;58.73;101166.53;1803534;78;20959;-75
2021/12/22 08:35:25;;;;;;;10.43;4.00;;;;;;;-7.41;58.65;101178.66;1809032;77;21038;-76
2021/12/22 08:40:35;;;;;;;8.35;3.52;;;;;;;-7.37;58.15;101185.27;1801329;78;22195;-76
2021/12/22 08:43:01;;;;;;;6.60;2.85;;;;;;;-7.35;57.79;101183.83;1801294;78;21489;-75
2021/12/22 08:45:28;;;;;;;9.23;3.85;;;;;;;-7.35;57.97;101187.24;1807647;78;21045;-74
2021/12/22 08:47:54;;;;;;;6.30;3.83;;;;;;;-7.32;57.90;101184.40;1803663;78;21034;-73
2021/12/22 08:50:24;;;;;;;7.90;3.55;;;;;;;-7.27;57.83;101184.05;1812370;78;21019;-74
2021/12/22 08:52:49;;;;;;;9.13;3.98;;;;;;;-7.21;57.86;101178.80;1814254;77;21911;-72
2021/12/22 08:55:16;;;;;;;7.35;4.05;;;;;;;-7.15;58.00;101182.20;1809130;78;21414;-73
2021/12/22 08:57:43;;;;;;;9.00;3.90;;;;;;;-7.09;57.89;101185.59;1804949;78;21124;-75
2021/12/22 09:00:12;;;;;;;9.33;3.90;;;;;;;-7.04;57.95;101191.23;1804783;78;21025;-75
2021/12/22 09:02:40;;;;;;;7.33;3.65;;;;;;;-7.05;57.04;101194.77;1811853;78;21060;-76
2021/12/22 09:05:07;;;;;;;7.28;3.95;;;;;;;-7.11;57.07;101192.67;1809899;78;21492;-75
2021/12/22 09:07:34;;;;;;;7.70;3.42;;;;;;;-7.19;56.86;101198.98;1802414;78;21023;-73
2021/12/22 09:10:01;;;;;;;8.93;3.55;;;;;;;-7.22;56.84;101192.26;1810492;78;20995;-73
2021/12/22 09:12:29;;;;;;;8.03;4.00;;;;;;;-7.27;56.41;101202.21;1809901;77;21489;-73
2021/12/22 09:14:57;;;;;;;7.60;3.62;;;;;;;-7.27;56.36;101197.02;1806492;78;21043;-73
2021/12/22 09:17:23;;;;;;;8.48;4.37;;;;;;;-7.27;56.15;101188.38;1780758;79;21540;-75
2021/12/22 09:19:52;;;;;;;6.78;3.58;;;;;;;-7.32;56.57;101197.86;1813967;78;21015;-76
2021/12/22 09:22:18;;;;;;;6.08;3.52;;;;;;;-7.27;55.91;101211.74;1809981;78;20974;-76
2021/12/22 09:24:46;;;;;;;6.87;3.90;;;;;;;-7.29;55.60;101192.42;1796705;78;21152;-77
2021/12/22 09:27:14;;;;;;;7.72;3.60;;;;;;;-7.32;55.30;101185.70;1804614;78;21533;-73
2021/12/22 09:29:42;;;;;;;5.85;3.45;;;;;;;-7.32;55.51;101190.89;1804838;78;21572;-74
2021/12/22 09:32:15;;;;;;;8.03;4.10;;;;;;;-7.29;55.52;101187.70;1804728;78;21644;-74
2021/12/22 09:34:43;;;;;;;9.75;5.15;;;;;;;-7.23;55.67;101183.31;1804890;78;21018;-74
2021/12/22 09:37:09;;;;;;;7.92;4.28;;;;;;;-7.17;55.61;101186.67;1809721;77;21093;-74
2021/12/22 09:39:37;;;;;;;8.63;4.47;;;;;;;-7.11;55.64;101183.13;1804703;78;21066;-76
2021/12/22 09:42:04;;;;;;;7.08;3.83;;;;;;;-7.08;55.55;101172.94;1805219;78;21110;-73
2021/12/22 09:44:37;;;;;;;8.10;4.08;;;;;;;-7.00;55.45;101173.63;1801742;78;20987;-74
2021/12/22 09:47:03;;;;;;;8.68;4.12;;;;;;;-6.96;55.53;101180.20;1811039;78;20979;-76
2021/12/22 09:49:58;;;;;;;8.05;4.33;;;;;;;-6.89;55.26;101166.56;1784122;78;21607;-76
2021/12/22 09:52:19;;;;;;;7.37;4.28;;;;;;;-6.88;55.21;101161.74;1806416;78;21094;-73
2021/12/22 09:54:48;;;;;;;7.80;3.90;;;;;;;-6.87;55.32;101163.38;1816918;77;21145;-74
2021/12/22 09:57:19;;;;;;;8.73;3.90;;;;;;;-6.81;55.45;101159.45;1806653;78;20921;-75
2021/12/22 09:59:47;;;;;;;9.00;4.20;;;;;;;-6.75;55.60;101167.19;1809532;78;21675;-74
2021/12/22 10:02:15;;;;;;;8.85;4.67;;;;;;;-6.71;55.35;101158.17;1805988;77;21006;-78
2021/12/22 10:04:43;;;;;;;6.10;3.60;;;;;;;-6.70;54.95;101159.84;1804824;78;21596;-75
2021/12/22 10:07:20;;;;;;;5.99;3.54;;;;;;;-6.72;55.10;101153.94;1724029;78;10000090;-76
2021/12/22 10:09:45;;;;;;;7.35;3.83;;;;;;;-6.78;54.86;101157.87;1786599;78;21619;-77
2021/12/22 10:12:21;;;;;;;7.87;4.17;;;;;;;-6.80;55.13;101163.69;1668351;78;10000486;-73
2021/12/22 10:15:00;;;;;;;9.43;4.28;;;;;;;-6.81;55.00;101154.70;1794933;78;21097;-75
2021/12/22 10:17:36;;;;;;;7.53;4.20;;;;;;;-6.78;55.07;101144.06;1795742;78;21151;-75
2021/12/22 10:20:10;;;;;;;8.53;4.20;;;;;;;-6.80;55.12;101144.69;1795976;78;21093;-73
2021/12/22 10:22:41;;;;;;;10.10;4.22;;;;;;;-6.76;54.87;101148.66;1797013;78;21014;-70
2021/12/22 10:25:22;;;;;;;8.35;3.92;;;;;;;-6.74;54.92;101150.67;1783084;78;21109;-74
2021/12/22 10:28:16;;;;;;;5.50;3.42;;;;;;;-6.65;55.05;101149.38;1775472;79;21081;-74
2021/12/22 10:30:41;;;;;;;6.35;3.70;;;;;;;-6.55;54.83;101150.72;1791436;78;21963;-72
2021/12/22 10:46:25;;;;;;;11.10;6.00;;;;;;;-5.71;53.15;101136.03;1830081;77;23288;-74
2021/12/22 10:49:17;;;;;;;11.15;6.45;;;;;;;-5.95;52.98;101141.18;1783428;79;21058;-74
2021/12/22 10:52:01;;;;;;;9.40;5.28;;;;;;;-6.22;53.45;101139.67;1824058;77;21993;-74
2021/12/22 10:54:39;;;;;;;8.63;4.50;;;;;;;-6.31;53.84;101145.70;1799551;77;21034;-74
2021/12/22 10:57:11;;;;;;;8.28;4.40;;;;;;;-6.37;54.08;101138.76;1823944;77;21029;-76
2021/12/22 10:59:47;;;;;;;;;;;;;;;-6.26;54.10;101155.20;1827630;77;21568;-74
2021/12/22 11:02:25;;;;;;;8.68;4.40;;;;;;;-6.18;53.68;101137.17;1800529;78;20474;-74
2021/12/22 11:04:51;;;;;;;6.33;3.52;;;;;;;-6.12;54.37;101146.20;1807033;78;21115;-73
2021/12/22 11:07:27;;;;;;;6.70;4.00;;;;;;;-6.06;54.26;101134.78;1793452;78;21082;-76
2021/12/22 11:09:52;;;;;;;7.95;3.80;;;;;;;-6.03;53.32;101136.30;1809501;78;21102;-74
2021/12/22 11:12:36;;;;;;;6.75;3.52;;;;;;;-6.03;53.09;101148.81;1810467;78;21048;-74
2021/12/22 11:15:06;;;;;;;7.28;3.77;;;;;;;-6.07;52.38;101134.45;1813026;78;21118;-75
2021/12/22 11:17:37;;;;;;;6.12;3.20;;;;;;;-6.05;52.55;101148.63;1804695;78;21721;-73
2021/12/22 11:20:05;;;;;;;;;;;;;;;-6.03;51.77;101125.41;1798650;79;21068;-74
2021/12/22 11:22:59;;;;;;;5.67;3.35;;;;;;;-6.05;52.57;101136.45;1799672;79;20531;-75
2021/12/22 11:25:22;;;;;;;6.83;3.77;;;;;;;-6.00;52.85;101130.34;1795286;79;21061;-75
2021/12/22 11:27:50;;;;;;;7.97;3.92;;;;;;;-5.93;52.32;101143.63;1799298;78;21649;-75
2021/12/22 11:30:17;;;;;;;5.95;3.33;;;;;;;-5.99;51.71;101138.97;1775997;79;21553;-75
2021/12/22 11:32:45;;;;;;;6.97;3.98;;;;;;;-6.07;51.65;101133.62;1800308;79;21614;-75
2021/12/22 11:35:12;;;;;;;8.00;3.80;;;;;;;-6.17;51.84;101131.83;1800435;79;21085;-73
2021/12/22 11:37:39;;;;;;;7.65;4.30;;;;;;;-6.20;52.21;101139.08;1798569;79;21116;-75
2021/12/22 11:40:09;;;;;;;8.08;4.10;;;;;;;-6.22;52.60;101131.87;1798895;79;21011;-73
2021/12/22 11:42:39;;;;;;;8.77;4.57;;;;;;;-6.18;52.99;101135.39;1666215;79;9999998;-74
2021/12/22 11:45:13;;;;;;;7.20;4.17;;;;;;;-6.14;53.22;101130.27;1799417;79;21063;-73
2021/12/22 11:47:44;;;;;;;7.65;4.53;;;;;;;-6.11;53.65;101129.18;1793033;79;21581;-74